PRIVATE WETTERSTATION BILLIGHEIM-ALLFELD                       ZURCK
Wetterdaten: Montag, 22.05.2017
Datum Zeit Temp. A. Temp. A. min Temp. A. max Feuchte A. Luftdruck Regen Wind Richtung Richtung Sonnenschein ET Solar Taupunkt Windchill Windben Empfang
22.05.2017 00:00 14,4 C 14,3 C 14,4 C 72 % 1020,9 hPa 0,0 l/m 0,0 km/h (0 Bft) NO 45 0 min 0,025 mm 0 W/m 9,4 C 14,4 C 3,2 km/h (1 Bft) 100 %
22.05.2017 00:10 14,3 C 14,3 C 14,4 C 72 % 1020,9 hPa 0,0 l/m 0,0 km/h (0 Bft) NO 45 0 min 0,000 mm 0 W/m 9,3 C 14,3 C 3,2 km/h (1 Bft) 100 %
22.05.2017 00:20 14,2 C 14,2 C 14,3 C 73 % 1020,9 hPa 0,0 l/m 0,0 km/h (0 Bft) NO 45 0 min 0,000 mm 0 W/m 9,4 C 14,2 C 1,6 km/h (1 Bft) 100 %
22.05.2017 00:30 14,2 C 14,2 C 14,2 C 74 % 1020,9 hPa 0,0 l/m 0,0 km/h (0 Bft) NO 45 0 min 0,000 mm 0 W/m 9,6 C 14,2 C 4,8 km/h (1 Bft) 99 %
22.05.2017 00:40 14,1 C 14,1 C 14,2 C 74 % 1020,9 hPa 0,0 l/m 0,0 km/h (0 Bft) NO 45 0 min 0,000 mm 0 W/m 9,5 C 14,1 C 3,2 km/h (1 Bft) 100 %
22.05.2017 00:50 14,0 C 14,0 C 14,1 C 75 % 1020,7 hPa 0,0 l/m 0,0 km/h (0 Bft) N 360 0 min 0,000 mm 0 W/m 9,6 C 14,0 C 6,4 km/h (2 Bft) 100 %
22.05.2017 01:00 13,9 C 13,9 C 14,0 C 75 % 1020,6 hPa 0,0 l/m 0,0 km/h (0 Bft) N 0 0 min 0,025 mm 0 W/m 9,5 C 13,9 C 0,0 km/h (0 Bft) 99 %
22.05.2017 01:10 13,9 C 13,9 C 13,9 C 76 % 1020,7 hPa 0,0 l/m 0,0 km/h (0 Bft) N 0 0 min 0,000 mm 0 W/m 9,7 C 13,9 C 0,0 km/h (0 Bft) 100 %
22.05.2017 01:20 13,9 C 13,9 C 13,9 C 77 % 1020,7 hPa 0,0 l/m 0,0 km/h (0 Bft) N-NO 22 0 min 0,000 mm 0 W/m 9,9 C 13,9 C 3,2 km/h (1 Bft) 99 %
22.05.2017 01:30 13,8 C 13,8 C 13,9 C 77 % 1020,6 hPa 0,0 l/m 0,0 km/h (0 Bft) N-NO 22 0 min 0,000 mm 0 W/m 9,8 C 13,8 C 1,6 km/h (1 Bft) 100 %
22.05.2017 01:40 13,8 C 13,8 C 13,8 C 77 % 1020,6 hPa 0,0 l/m 0,0 km/h (0 Bft) N-NO 22 0 min 0,000 mm 0 W/m 9,8 C 13,8 C 3,2 km/h (1 Bft) 100 %
22.05.2017 01:50 13,8 C 13,8 C 13,8 C 78 % 1020,5 hPa 0,0 l/m 0,0 km/h (0 Bft) N 0 0 min 0,000 mm 0 W/m 10,0 C 13,8 C 0,0 km/h (0 Bft) 100 %
22.05.2017 02:00 13,7 C 13,7 C 13,8 C 78 % 1020,3 hPa 0,0 l/m 0,0 km/h (0 Bft) N 0 0 min 0,025 mm 0 W/m 9,9 C 13,7 C 0,0 km/h (0 Bft) 100 %
22.05.2017 02:10 13,7 C 13,7 C 13,7 C 77 % 1020,2 hPa 0,0 l/m 0,0 km/h (0 Bft) N-NO 22 0 min 0,000 mm 0 W/m 9,7 C 13,7 C 3,2 km/h (1 Bft) 100 %
22.05.2017 02:20 13,7 C 13,7 C 13,7 C 77 % 1020,1 hPa 0,0 l/m 0,0 km/h (0 Bft) N-NO 22 0 min 0,000 mm 0 W/m 9,7 C 13,7 C 3,2 km/h (1 Bft) 100 %
22.05.2017 02:30 13,7 C 13,7 C 13,7 C 77 % 1020,0 hPa 0,0 l/m 0,0 km/h (0 Bft) N-NO 22 0 min 0,000 mm 0 W/m 9,7 C 13,7 C 6,4 km/h (2 Bft) 100 %
22.05.2017 02:40 13,6 C 13,6 C 13,7 C 78 % 1019,9 hPa 0,0 l/m 0,0 km/h (0 Bft) N-NO 22 0 min 0,000 mm 0 W/m 9,8 C 13,6 C 3,2 km/h (1 Bft) 100 %
22.05.2017 02:50 13,6 C 13,6 C 13,6 C 78 % 1019,8 hPa 0,0 l/m 0,0 km/h (0 Bft) O 90 0 min 0,000 mm 0 W/m 9,8 C 13,6 C 6,4 km/h (2 Bft) 100 %
22.05.2017 03:00 13,5 C 13,5 C 13,6 C 78 % 1019,9 hPa 0,0 l/m 0,0 km/h (0 Bft) O-NO 67 0 min 0,025 mm 0 W/m 9,7 C 13,5 C 4,8 km/h (1 Bft) 100 %
22.05.2017 03:10 13,5 C 13,5 C 13,5 C 79 % 1019,8 hPa 0,0 l/m 1,6 km/h (1 Bft) N-NO 22 0 min 0,000 mm 0 W/m 9,9 C 13,5 C 6,4 km/h (2 Bft) 99 %
22.05.2017 03:20 13,5 C 13,5 C 13,5 C 79 % 1019,7 hPa 0,0 l/m 0,0 km/h (0 Bft) NO 45 0 min 0,000 mm 0 W/m 9,9 C 13,5 C 6,4 km/h (2 Bft) 100 %
22.05.2017 03:30 13,4 C 13,4 C 13,5 C 79 % 1019,7 hPa 0,0 l/m 0,0 km/h (0 Bft) NO 45 0 min 0,000 mm 0 W/m 9,8 C 13,4 C 3,2 km/h (1 Bft) 100 %
22.05.2017 03:40 13,4 C 13,4 C 13,4 C 79 % 1019,7 hPa 0,0 l/m 0,0 km/h (0 Bft) NO 45 0 min 0,000 mm 0 W/m 9,8 C 13,4 C 6,4 km/h (2 Bft) 100 %
22.05.2017 03:50 13,4 C 13,4 C 13,4 C 80 % 1019,7 hPa 0,0 l/m 0,0 km/h (0 Bft) NO 45 0 min 0,000 mm 0 W/m 10,0 C 13,4 C 6,4 km/h (2 Bft) 100 %
22.05.2017 04:00 13,4 C 13,4 C 13,4 C 80 % 1019,5 hPa 0,0 l/m 0,0 km/h (0 Bft) N-NO 22 0 min 0,025 mm 0 W/m 10,0 C 13,4 C 4,8 km/h (1 Bft) 100 %
22.05.2017 04:10 13,4 C 13,3 C 13,4 C 80 % 1019,5 hPa 0,0 l/m 0,0 km/h (0 Bft) N-NO 22 0 min 0,000 mm 0 W/m 10,0 C 13,4 C 6,4 km/h (2 Bft) 100 %
22.05.2017 04:20 13,3 C 13,3 C 13,4 C 81 % 1019,3 hPa 0,0 l/m 0,0 km/h (0 Bft) N 0 0 min 0,000 mm 0 W/m 10,1 C 13,3 C 0,0 km/h (0 Bft) 100 %
22.05.2017 04:30 13,3 C 13,3 C 13,3 C 81 % 1019,3 hPa 0,0 l/m 0,0 km/h (0 Bft) N 0 0 min 0,000 mm 0 W/m 10,1 C 13,3 C 0,0 km/h (0 Bft) 100 %
22.05.2017 04:40 13,2 C 13,2 C 13,3 C 82 % 1019,2 hPa 0,0 l/m 0,0 km/h (0 Bft) N 0 0 min 0,000 mm 0 W/m 10,2 C 13,2 C 0,0 km/h (0 Bft) 100 %
22.05.2017 04:50 13,1 C 13,1 C 13,2 C 83 % 1019,2 hPa 0,0 l/m 0,0 km/h (0 Bft) N 0 0 min 0,000 mm 0 W/m 10,3 C 13,1 C 0,0 km/h (0 Bft) 100 %
22.05.2017 05:00 13,0 C 13,0 C 13,1 C 83 % 1019,2 hPa 0,0 l/m 0,0 km/h (0 Bft) N 0 0 min 0,025 mm 0 W/m 10,2 C 13,0 C 0,0 km/h (0 Bft) 100 %
22.05.2017 05:10 12,9 C 12,9 C 13,0 C 83 % 1019,2 hPa 0,0 l/m 0,0 km/h (0 Bft) N 0 0 min 0,000 mm 0 W/m 10,1 C 12,9 C 0,0 km/h (0 Bft) 100 %
22.05.2017 05:20 12,8 C 12,8 C 12,9 C 83 % 1019,2 hPa 0,0 l/m 0,0 km/h (0 Bft) N 0 0 min 0,000 mm 0 W/m 10,0 C 12,8 C 0,0 km/h (0 Bft) 99 %
22.05.2017 05:30 12,7 C 12,7 C 12,8 C 83 % 1019,2 hPa 0,0 l/m 0,0 km/h (0 Bft) N 0 0 min 0,000 mm 0 W/m 9,9 C 12,7 C 0,0 km/h (0 Bft) 100 %
22.05.2017 05:40 12,7 C 12,7 C 12,7 C 84 % 1019,2 hPa 0,0 l/m 0,0 km/h (0 Bft) N 0 0 min 0,000 mm 0 W/m 10,1 C 12,7 C 0,0 km/h (0 Bft) 100 %
22.05.2017 05:50 12,6 C 12,6 C 12,7 C 84 % 1019,1 hPa 0,0 l/m 0,0 km/h (0 Bft) N 0 0 min 0,000 mm 0 W/m 10,0 C 12,6 C 0,0 km/h (0 Bft) 100 %
22.05.2017 06:00 12,5 C 12,5 C 12,6 C 83 % 1019,1 hPa 0,0 l/m 0,0 km/h (0 Bft) N 0 0 min 0,000 mm 7 W/m 9,7 C 12,5 C 0,0 km/h (0 Bft) 100 %
22.05.2017 06:10 12,5 C 12,4 C 12,5 C 83 % 1019,1 hPa 0,0 l/m 0,0 km/h (0 Bft) N 0 0 min 0,000 mm 18 W/m 9,7 C 12,5 C 0,0 km/h (0 Bft) 100 %
22.05.2017 06:20 12,4 C 12,4 C 12,5 C 83 % 1019,1 hPa 0,0 l/m 0,0 km/h (0 Bft) N 0 0 min 0,000 mm 18 W/m 9,6 C 12,4 C 0,0 km/h (0 Bft) 100 %
22.05.2017 06:30 12,4 C 12,4 C 12,4 C 83 % 1019,0 hPa 0,0 l/m 0,0 km/h (0 Bft) N-NO 22 0 min 0,000 mm 16 W/m 9,6 C 12,4 C 4,8 km/h (1 Bft) 100 %
22.05.2017 06:40 12,4 C 12,4 C 12,4 C 84 % 1019,0 hPa 0,0 l/m 0,0 km/h (0 Bft) N-NO 22 0 min 0,000 mm 16 W/m 9,8 C 12,4 C 3,2 km/h (1 Bft) 100 %
22.05.2017 06:50 12,4 C 12,4 C 12,4 C 84 % 1019,0 hPa 0,0 l/m 0,0 km/h (0 Bft) O-NO 67 0 min 0,000 mm 21 W/m 9,8 C 12,4 C 4,8 km/h (1 Bft) 100 %
22.05.2017 07:00 12,5 C 12,4 C 12,5 C 85 % 1019,0 hPa 0,0 l/m 0,0 km/h (0 Bft) N 0 0 min 0,000 mm 25 W/m 10,0 C 12,5 C 0,0 km/h (0 Bft) 100 %
22.05.2017 07:10 12,5 C 12,4 C 12,5 C 85 % 1019,0 hPa 0,0 l/m 0,0 km/h (0 Bft) N 0 0 min 0,000 mm 28 W/m 10,0 C 12,5 C 0,0 km/h (0 Bft) 100 %
22.05.2017 07:20 12,5 C 12,5 C 12,5 C 84 % 1019,0 hPa 0,0 l/m 0,0 km/h (0 Bft) O-NO 67 0 min 0,000 mm 33 W/m 9,9 C 12,5 C 3,2 km/h (1 Bft) 100 %
22.05.2017 07:30 12,6 C 12,5 C 12,6 C 84 % 1019,0 hPa 0,0 l/m 0,0 km/h (0 Bft) NO 45 0 min 0,000 mm 44 W/m 10,0 C 12,6 C 3,2 km/h (1 Bft) 100 %
22.05.2017 07:40 12,7 C 12,6 C 12,7 C 85 % 1019,0 hPa 0,0 l/m 0,0 km/h (0 Bft) NO 45 0 min 0,000 mm 56 W/m 10,2 C 12,7 C 3,2 km/h (1 Bft) 100 %
22.05.2017 07:50 12,8 C 12,7 C 12,8 C 84 % 1019,0 hPa 0,0 l/m 0,0 km/h (0 Bft) NO 45 0 min 0,000 mm 79 W/m 10,2 C 12,8 C 1,6 km/h (1 Bft) 100 %
22.05.2017 08:00 12,9 C 12,8 C 12,9 C 83 % 1019,1 hPa 0,0 l/m 0,0 km/h (0 Bft) N 0 0 min 0,025 mm 98 W/m 10,1 C 12,9 C 0,0 km/h (0 Bft) 100 %
22.05.2017 08:10 13,2 C 12,9 C 13,2 C 84 % 1019,0 hPa 0,0 l/m 0,0 km/h (0 Bft) NO 45 0 min 0,000 mm 104 W/m 10,6 C 13,2 C 3,2 km/h (1 Bft) 100 %
22.05.2017 08:20 13,4 C 13,2 C 13,4 C 83 % 1019,0 hPa 0,0 l/m 0,0 km/h (0 Bft) N 0 0 min 0,000 mm 128 W/m 10,6 C 13,4 C 0,0 km/h (0 Bft) 100 %
22.05.2017 08:30 13,6 C 13,4 C 13,6 C 83 % 1019,0 hPa 0,0 l/m 0,0 km/h (0 Bft) NO 45 0 min 0,000 mm 149 W/m 10,8 C 13,6 C 3,2 km/h (1 Bft) 100 %
22.05.2017 08:40 13,9 C 13,6 C 13,9 C 83 % 1019,0 hPa 0,0 l/m 0,0 km/h (0 Bft) N 0 10 min 0,000 mm 192 W/m 11,1 C 13,9 C 0,0 km/h (0 Bft) 100 %
22.05.2017 08:50 14,3 C 13,9 C 14,3 C 81 % 1019,0 hPa 0,0 l/m 0,0 km/h (0 Bft) NO 45 10 min 0,000 mm 200 W/m 11,1 C 14,3 C 1,6 km/h (1 Bft) 100 %
22.05.2017 09:00 14,6 C 14,3 C 14,6 C 81 % 1019,1 hPa 0,0 l/m 0,0 km/h (0 Bft) N 0 10 min 0,076 mm 192 W/m 11,4 C 14,6 C 0,0 km/h (0 Bft) 100 %
22.05.2017 09:10 14,7 C 14,6 C 14,7 C 80 % 1019,1 hPa 0,0 l/m 0,0 km/h (0 Bft) N-NO 22 10 min 0,000 mm 169 W/m 11,3 C 14,7 C 4,8 km/h (1 Bft) 100 %
22.05.2017 09:20 14,8 C 14,7 C 14,8 C 80 % 1019,0 hPa 0,0 l/m 0,0 km/h (0 Bft) N 0 10 min 0,000 mm 165 W/m 11,4 C 14,8 C 0,0 km/h (0 Bft) 100 %
22.05.2017 09:30 15,0 C 14,8 C 15,0 C 79 % 1019,0 hPa 0,0 l/m 0,0 km/h (0 Bft) N 0 10 min 0,000 mm 181 W/m 11,4 C 15,0 C 0,0 km/h (0 Bft) 100 %
22.05.2017 09:40 15,1 C 15,0 C 15,1 C 78 % 1019,0 hPa 0,0 l/m 0,0 km/h (0 Bft) N 0 10 min 0,000 mm 211 W/m 11,3 C 15,1 C 0,0 km/h (0 Bft) 100 %
22.05.2017 09:50 15,1 C 15,1 C 15,1 C 78 % 1019,0 hPa 0,0 l/m 0,0 km/h (0 Bft) N-NO 22 10 min 0,000 mm 216 W/m 11,3 C 15,1 C 3,2 km/h (1 Bft) 100 %
22.05.2017 10:00 15,2 C 15,1 C 15,2 C 79 % 1019,0 hPa 0,0 l/m 0,0 km/h (0 Bft) N 0 10 min 0,102 mm 246 W/m 11,6 C 15,2 C 0,0 km/h (0 Bft) 100 %
22.05.2017 10:10 15,5 C 15,2 C 15,5 C 79 % 1019,0 hPa 0,0 l/m 0,0 km/h (0 Bft) W-NW 292 10 min 0,000 mm 250 W/m 11,9 C 15,5 C 6,4 km/h (2 Bft) 100 %
22.05.2017 10:20 15,7 C 15,5 C 15,7 C 78 % 1019,0 hPa 0,0 l/m 0,0 km/h (0 Bft) S 180 10 min 0,000 mm 267 W/m 11,9 C 15,7 C 1,6 km/h (1 Bft) 100 %
22.05.2017 10:30 16,1 C 15,7 C 16,1 C 77 % 1018,9 hPa 0,0 l/m 0,0 km/h (0 Bft) N 0 10 min 0,000 mm 471 W/m 12,1 C 16,1 C 0,0 km/h (0 Bft) 100 %
22.05.2017 10:40 16,6 C 16,1 C 16,6 C 76 % 1018,9 hPa 0,0 l/m 0,0 km/h (0 Bft) S 180 10 min 0,000 mm 489 W/m 12,3 C 16,6 C 3,2 km/h (1 Bft) 100 %
22.05.2017 10:50 16,9 C 16,6 C 16,9 C 74 % 1018,9 hPa 0,0 l/m 0,0 km/h (0 Bft) W 270 10 min 0,000 mm 536 W/m 12,2 C 16,9 C 6,4 km/h (2 Bft) 100 %
22.05.2017 11:00 17,5 C 16,9 C 17,5 C 73 % 1018,8 hPa 0,0 l/m 1,6 km/h (1 Bft) W-SW 247 10 min 0,203 mm 1034 W/m 12,6 C 17,5 C 6,4 km/h (2 Bft) 100 %
22.05.2017 11:10 18,0 C 17,5 C 18,0 C 71 % 1018,7 hPa 0,0 l/m 0,0 km/h (0 Bft) W-NW 292 10 min 0,000 mm 522 W/m 12,7 C 18,0 C 6,4 km/h (2 Bft) 100 %
22.05.2017 11:20 18,5 C 18,0 C 18,5 C 71 % 1018,7 hPa 0,0 l/m 1,6 km/h (1 Bft) SO 135 10 min 0,000 mm 891 W/m 13,1 C 18,5 C 8,0 km/h (2 Bft) 100 %
22.05.2017 11:30 19,3 C 18,5 C 19,3 C 69 % 1018,6 hPa 0,0 l/m 1,6 km/h (1 Bft) O-SO 112 10 min 0,000 mm 1000 W/m 13,5 C 19,3 C 6,4 km/h (2 Bft) 100 %
22.05.2017 11:40 19,7 C 19,3 C 19,7 C 63 % 1018,5 hPa 0,0 l/m 1,6 km/h (1 Bft) W 270 10 min 0,000 mm 1144 W/m 12,5 C 19,7 C 8,0 km/h (2 Bft) 100 %
22.05.2017 11:50 19,9 C 19,7 C 19,9 C 64 % 1018,5 hPa 0,0 l/m 1,6 km/h (1 Bft) NO 45 10 min 0,000 mm 1111 W/m 12,9 C 19,9 C 6,4 km/h (2 Bft) 100 %
22.05.2017 12:00 19,7 C 19,7 C 19,9 C 63 % 1018,5 hPa 0,0 l/m 1,6 km/h (1 Bft) SO 135 10 min 0,381 mm 403 W/m 12,5 C 19,7 C 6,4 km/h (2 Bft) 100 %
22.05.2017 12:10 19,7 C 19,6 C 19,7 C 64 % 1018,4 hPa 0,0 l/m 0,0 km/h (0 Bft) W-NW 292 10 min 0,000 mm 1048 W/m 12,7 C 19,7 C 6,4 km/h (2 Bft) 100 %
22.05.2017 12:20 20,2 C 19,7 C 20,2 C 65 % 1018,2 hPa 0,0 l/m 1,6 km/h (1 Bft) W-SW 247 10 min 0,000 mm 1136 W/m 13,4 C 20,2 C 4,8 km/h (1 Bft) 100 %
22.05.2017 12:30 20,5 C 20,2 C 20,5 C 63 % 1018,0 hPa 0,0 l/m 1,6 km/h (1 Bft) SO 135 10 min 0,000 mm 1053 W/m 13,2 C 20,5 C 8,0 km/h (2 Bft) 100 %
22.05.2017 12:40 20,9 C 20,5 C 20,9 C 61 % 1017,9 hPa 0,0 l/m 0,0 km/h (0 Bft) O 90 10 min 0,000 mm 967 W/m 13,1 C 20,9 C 8,0 km/h (2 Bft) 100 %
22.05.2017 12:50 21,0 C 20,9 C 21,0 C 61 % 1017,8 hPa 0,0 l/m 1,6 km/h (1 Bft) NW 315 10 min 0,000 mm 969 W/m 13,2 C 21,0 C 11,3 km/h (2 Bft) 100 %
22.05.2017 13:00 21,3 C 21,0 C 21,3 C 58 % 1017,8 hPa 0,0 l/m 1,6 km/h (1 Bft) O-SO 112 10 min 0,508 mm 993 W/m 12,7 C 21,3 C 11,3 km/h (2 Bft) 100 %
22.05.2017 13:10 21,4 C 21,3 C 21,4 C 57 % 1017,7 hPa 0,0 l/m 0,0 km/h (0 Bft) NO 45 10 min 0,000 mm 953 W/m 12,5 C 21,4 C 1,6 km/h (1 Bft) 100 %
22.05.2017 13:20 21,2 C 21,2 C 21,4 C 61 % 1017,5 hPa 0,0 l/m 0,0 km/h (0 Bft) O-SO 112 10 min 0,000 mm 977 W/m 13,4 C 21,2 C 1,6 km/h (1 Bft) 100 %
22.05.2017 13:30 21,4 C 21,2 C 21,4 C 65 % 1017,4 hPa 0,0 l/m 3,2 km/h (1 Bft) O-SO 112 10 min 0,000 mm 956 W/m 14,5 C 21,4 C 16,1 km/h (3 Bft) 100 %
22.05.2017 13:40 21,3 C 21,3 C 21,4 C 63 % 1017,4 hPa 0,0 l/m 3,2 km/h (1 Bft) N-NW 337 10 min 0,000 mm 979 W/m 14,0 C 21,3 C 16,1 km/h (3 Bft) 100 %
22.05.2017 13:50 21,5 C 21,3 C 21,5 C 58 % 1017,3 hPa 0,0 l/m 0,0 km/h (0 Bft) NO 45 10 min 0,000 mm 956 W/m 12,9 C 21,5 C 1,6 km/h (1 Bft) 100 %
22.05.2017 14:00 21,4 C 21,4 C 21,5 C 62 % 1017,3 hPa 0,0 l/m 1,6 km/h (1 Bft) N-NO 22 10 min 0,483 mm 969 W/m 13,8 C 21,4 C 14,5 km/h (3 Bft) 100 %
22.05.2017 14:10 21,6 C 21,4 C 21,6 C 58 % 1017,2 hPa 0,0 l/m 0,0 km/h (0 Bft) O 90 10 min 0,000 mm 1028 W/m 13,0 C 21,6 C 8,0 km/h (2 Bft) 100 %
22.05.2017 14:20 21,5 C 21,5 C 21,7 C 58 % 1017,2 hPa 0,0 l/m 4,8 km/h (1 Bft) SO 135 10 min 0,000 mm 1020 W/m 12,9 C 21,5 C 16,1 km/h (3 Bft) 100 %
22.05.2017 14:30 21,9 C 21,5 C 21,9 C 57 % 1017,1 hPa 0,0 l/m 1,6 km/h (1 Bft) NW 315 10 min 0,000 mm 997 W/m 13,0 C 21,9 C 9,7 km/h (2 Bft) 100 %
22.05.2017 14:40 22,1 C 21,9 C 22,1 C 58 % 1017,0 hPa 0,0 l/m 1,6 km/h (1 Bft) O-SO 112 10 min 0,000 mm 988 W/m 13,4 C 22,1 C 14,5 km/h (3 Bft) 100 %
22.05.2017 14:50 22,2 C 22,1 C 22,2 C 56 % 1017,1 hPa 0,0 l/m 0,0 km/h (0 Bft) SO 135 10 min 0,000 mm 1021 W/m 13,0 C 22,2 C 9,7 km/h (2 Bft) 100 %
22.05.2017 15:00 21,9 C 21,9 C 22,2 C 56 % 1017,0 hPa 0,0 l/m 1,6 km/h (1 Bft) S-SO 157 10 min 0,508 mm 1000 W/m 12,7 C 21,9 C 12,9 km/h (3 Bft) 100 %
22.05.2017 15:10 21,6 C 21,6 C 22,0 C 55 % 1016,9 hPa 0,0 l/m 0,0 km/h (0 Bft) SW 225 10 min 0,000 mm 278 W/m 12,2 C 21,6 C 1,6 km/h (1 Bft) 100 %
22.05.2017 15:20 21,3 C 21,3 C 21,6 C 55 % 1016,7 hPa 0,0 l/m 0,0 km/h (0 Bft) S 180 10 min 0,000 mm 292 W/m 11,9 C 21,3 C 1,6 km/h (1 Bft) 100 %
22.05.2017 15:30 21,3 C 21,2 C 21,3 C 58 % 1016,5 hPa 0,0 l/m 0,0 km/h (0 Bft) SO 135 10 min 0,000 mm 353 W/m 12,7 C 21,3 C 16,1 km/h (3 Bft) 100 %
22.05.2017 15:40 21,1 C 21,1 C 21,4 C 57 % 1016,6 hPa 0,0 l/m 0,0 km/h (0 Bft) O-SO 112 10 min 0,000 mm 211 W/m 12,2 C 21,1 C 4,8 km/h (1 Bft) 100 %
22.05.2017 15:50 21,2 C 21,1 C 21,2 C 63 % 1016,5 hPa 0,0 l/m 0,0 km/h (0 Bft) O-SO 112 10 min 0,000 mm 454 W/m 13,9 C 21,2 C 1,6 km/h (1 Bft) 100 %
22.05.2017 16:00 21,8 C 21,3 C 21,8 C 59 % 1016,5 hPa 0,0 l/m 0,0 km/h (0 Bft) W 270 10 min 0,178 mm 613 W/m 13,4 C 21,8 C 4,8 km/h (1 Bft) 100 %
22.05.2017 16:10 22,3 C 21,8 C 22,3 C 56 % 1016,5 hPa 0,0 l/m 0,0 km/h (0 Bft) W-SW 247 10 min 0,000 mm 793 W/m 13,1 C 22,3 C 4,8 km/h (1 Bft) 100 %
22.05.2017 16:20 22,6 C 22,3 C 22,6 C 57 % 1016,4 hPa 0,0 l/m 0,0 km/h (0 Bft) NO 45 10 min 0,000 mm 701 W/m 13,6 C 22,6 C 1,6 km/h (1 Bft) 90 %
22.05.2017 16:30 22,3 C 22,3 C 22,7 C 56 % 1016,4 hPa 0,0 l/m 1,6 km/h (1 Bft) SO 135 10 min 0,000 mm 380 W/m 13,1 C 22,3 C 11,3 km/h (2 Bft) 100 %
22.05.2017 16:40 21,6 C 21,6 C 22,3 C 60 % 1016,4 hPa 0,0 l/m 0,0 km/h (0 Bft) N 360 10 min 0,000 mm 192 W/m 13,5 C 21,6 C 1,6 km/h (1 Bft) 100 %
22.05.2017 16:50 21,2 C 21,2 C 21,6 C 62 % 1016,3 hPa 0,0 l/m 0,0 km/h (0 Bft) N 360 10 min 0,000 mm 244 W/m 13,6 C 21,2 C 1,6 km/h (1 Bft) 100 %
22.05.2017 17:00 21,2 C 21,1 C 21,2 C 60 % 1016,2 hPa 0,0 l/m 0,0 km/h (0 Bft) O 90 10 min 0,229 mm 265 W/m 13,1 C 21,2 C 3,2 km/h (1 Bft) 100 %
22.05.2017 17:10 21,5 C 21,2 C 21,5 C 58 % 1016,2 hPa 0,0 l/m 0,0 km/h (0 Bft) O 90 10 min 0,000 mm 271 W/m 12,9 C 21,5 C 1,6 km/h (1 Bft) 100 %
22.05.2017 17:20 21,8 C 21,5 C 21,8 C 60 % 1016,1 hPa 0,0 l/m 1,6 km/h (1 Bft) NO 45 10 min 0,000 mm 162 W/m 13,7 C 21,8 C 4,8 km/h (1 Bft) 100 %
22.05.2017 17:30 21,9 C 21,8 C 21,9 C 54 % 1015,9 hPa 0,0 l/m 0,0 km/h (0 Bft) N 360 0 min 0,000 mm 118 W/m 12,2 C 21,9 C 6,4 km/h (2 Bft) 100 %
22.05.2017 17:40 21,8 C 21,8 C 21,9 C 58 % 1015,8 hPa 0,0 l/m 0,0 km/h (0 Bft) O-SO 112 0 min 0,000 mm 118 W/m 13,2 C 21,8 C 4,8 km/h (1 Bft) 100 %
22.05.2017 17:50 21,8 C 21,8 C 21,8 C 59 % 1015,8 hPa 0,0 l/m 0,0 km/h (0 Bft) O-SO 112 0 min 0,000 mm 139 W/m 13,4 C 21,8 C 8,0 km/h (2 Bft) 100 %
22.05.2017 18:00 21,8 C 21,8 C 21,8 C 59 % 1015,8 hPa 0,0 l/m 0,0 km/h (0 Bft) N 360 0 min 0,102 mm 118 W/m 13,4 C 21,8 C 3,2 km/h (1 Bft) 100 %
22.05.2017 18:10 21,7 C 21,7 C 21,8 C 55 % 1015,7 hPa 0,0 l/m 0,0 km/h (0 Bft) N-NO 22 0 min 0,000 mm 104 W/m 12,3 C 21,7 C 3,2 km/h (1 Bft) 100 %
22.05.2017 18:20 21,6 C 21,6 C 21,7 C 59 % 1015,6 hPa 0,0 l/m 0,0 km/h (0 Bft) N-NO 22 0 min 0,000 mm 83 W/m 13,2 C 21,6 C 1,6 km/h (1 Bft) 100 %
22.05.2017 18:30 21,4 C 21,4 C 21,6 C 56 % 1015,5 hPa 0,0 l/m 0,0 km/h (0 Bft) O-NO 67 0 min 0,000 mm 77 W/m 12,3 C 21,4 C 4,8 km/h (1 Bft) 100 %
22.05.2017 18:40 21,3 C 21,3 C 21,4 C 57 % 1015,5 hPa 0,0 l/m 0,0 km/h (0 Bft) O-NO 67 0 min 0,000 mm 69 W/m 12,4 C 21,3 C 1,6 km/h (1 Bft) 100 %
22.05.2017 18:50 21,0 C 21,0 C 21,3 C 55 % 1015,6 hPa 0,0 l/m 0,0 km/h (0 Bft) O-SO 112 0 min 0,000 mm 62 W/m 11,6 C 21,0 C 4,8 km/h (1 Bft) 100 %
22.05.2017 19:00 20,8 C 20,8 C 21,0 C 60 % 1015,4 hPa 0,0 l/m 0,0 km/h (0 Bft) O-SO 112 0 min 0,051 mm 60 W/m 12,7 C 20,8 C 1,6 km/h (1 Bft) 100 %
22.05.2017 19:10 20,7 C 20,7 C 20,8 C 63 % 1015,4 hPa 0,0 l/m 0,0 km/h (0 Bft) SO 135 0 min 0,000 mm 58 W/m 13,4 C 20,7 C 1,6 km/h (1 Bft) 100 %
22.05.2017 19:20 20,4 C 20,4 C 20,7 C 61 % 1015,4 hPa 0,0 l/m 0,0 km/h (0 Bft) S-SO 157 0 min 0,000 mm 53 W/m 12,6 C 20,4 C 3,2 km/h (1 Bft) 100 %
22.05.2017 19:40 19,9 C 19,9 C 20,7 C 64 % 1015,4 hPa 0,0 l/m 0,0 km/h (0 Bft) S-SO 148 0 min 0,000 mm 42 W/m 12,9 C 19,9 C 1,6 km/h (1 Bft) 99 %
22.05.2017 19:50 19,7 C 19,7 C 19,9 C 65 % 1015,4 hPa 0,0 l/m 0,0 km/h (0 Bft) S-SO 148 0 min 0,000 mm 37 W/m 12,9 C 19,7 C 1,6 km/h (1 Bft) 100 %
22.05.2017 20:00 19,5 C 19,5 C 19,7 C 65 % 1015,4 hPa 0,0 l/m 0,0 km/h (0 Bft) S-SO 148 0 min 0,001 mm 30 W/m 12,7 C 19,5 C 0,0 km/h (0 Bft) 100 %
22.05.2017 20:10 19,2 C 19,2 C 19,5 C 66 % 1015,4 hPa 0,0 l/m 0,0 km/h (0 Bft) S-SO 148 0 min 0,000 mm 28 W/m 12,7 C 19,2 C 0,0 km/h (0 Bft) 100 %
22.05.2017 20:20 18,9 C 18,9 C 19,2 C 65 % 1015,4 hPa 0,0 l/m 0,0 km/h (0 Bft) SO 138 0 min 0,000 mm 25 W/m 12,2 C 18,9 C 0,0 km/h (0 Bft) 100 %
22.05.2017 20:30 18,6 C 18,6 C 18,9 C 65 % 1015,3 hPa 0,0 l/m 0,1 km/h (0 Bft) SO 128 0 min 0,000 mm 14 W/m 11,9 C 18,6 C 1,6 km/h (1 Bft) 99 %
22.05.2017 20:40 18,3 C 18,3 C 18,6 C 65 % 1015,4 hPa 0,0 l/m 0,0 km/h (0 Bft) SO 128 0 min 0,000 mm 9 W/m 11,6 C 18,3 C 1,6 km/h (1 Bft) 100 %
22.05.2017 20:50 17,9 C 17,9 C 18,3 C 67 % 1015,4 hPa 0,0 l/m 0,0 km/h (0 Bft) SO 128 0 min 0,000 mm 5 W/m 11,7 C 17,9 C 0,0 km/h (0 Bft) 100 %
22.05.2017 21:00 17,5 C 17,5 C 17,9 C 67 % 1015,5 hPa 0,0 l/m 0,0 km/h (0 Bft) SO 128 0 min 0,026 mm 0 W/m 11,3 C 17,5 C 0,0 km/h (0 Bft) 100 %
22.05.2017 21:10 17,1 C 17,1 C 17,5 C 69 % 1015,5 hPa 0,0 l/m 0,0 km/h (0 Bft) N 0 0 min 0,000 mm 0 W/m 11,4 C 17,1 C 0,0 km/h (0 Bft) 100 %
22.05.2017 21:20 16,8 C 16,8 C 17,1 C 68 % 1015,5 hPa 0,0 l/m 0,0 km/h (0 Bft) N 0 0 min 0,000 mm 0 W/m 10,9 C 16,8 C 0,0 km/h (0 Bft) 100 %
22.05.2017 21:30 16,6 C 16,6 C 16,8 C 68 % 1015,5 hPa 0,0 l/m 0,0 km/h (0 Bft) N 0 0 min 0,000 mm 0 W/m 10,7 C 16,6 C 0,0 km/h (0 Bft) 100 %
22.05.2017 21:40 16,3 C 16,3 C 16,5 C 70 % 1015,5 hPa 0,0 l/m 0,0 km/h (0 Bft) N 0 0 min 0,000 mm 0 W/m 10,8 C 16,3 C 0,0 km/h (0 Bft) 100 %
22.05.2017 21:50 16,1 C 16,1 C 16,3 C 73 % 1015,7 hPa 0,0 l/m 0,0 km/h (0 Bft) N 0 0 min 0,000 mm 0 W/m 11,3 C 16,1 C 0,0 km/h (0 Bft) 100 %
22.05.2017 22:00 15,6 C 15,6 C 16,1 C 74 % 1015,8 hPa 0,0 l/m 0,0 km/h (0 Bft) SO 135 0 min 0,000 mm 0 W/m 11,0 C 15,6 C 1,6 km/h (1 Bft) 100 %
22.05.2017 22:10 15,1 C 15,1 C 15,6 C 76 % 1015,9 hPa 0,0 l/m 3,2 km/h (1 Bft) SO 135 0 min 0,000 mm 0 W/m 10,9 C 15,1 C 4,8 km/h (1 Bft) 100 %
22.05.2017 22:20 14,7 C 14,7 C 15,1 C 76 % 1016,0 hPa 0,0 l/m 1,6 km/h (1 Bft) O 90 0 min 0,000 mm 0 W/m 10,5 C 14,7 C 3,2 km/h (1 Bft) 100 %
22.05.2017 22:30 14,3 C 14,3 C 14,6 C 78 % 1016,1 hPa 0,0 l/m 1,6 km/h (1 Bft) O 90 0 min 0,000 mm 0 W/m 10,5 C 14,3 C 3,2 km/h (1 Bft) 100 %
22.05.2017 22:40 14,1 C 14,1 C 14,3 C 79 % 1016,2 hPa 0,0 l/m 0,0 km/h (0 Bft) O 90 0 min 0,000 mm 0 W/m 10,5 C 14,1 C 4,8 km/h (1 Bft) 100 %
22.05.2017 22:50 13,8 C 13,8 C 14,1 C 80 % 1016,2 hPa 0,0 l/m 1,6 km/h (1 Bft) NO 45 0 min 0,000 mm 0 W/m 10,4 C 13,8 C 6,4 km/h (2 Bft) 100 %
22.05.2017 23:00 13,7 C 13,7 C 13,8 C 80 % 1016,1 hPa 0,0 l/m 1,6 km/h (1 Bft) N-NO 22 0 min 0,025 mm 0 W/m 10,3 C 13,7 C 6,4 km/h (2 Bft) 100 %
22.05.2017 23:10 13,6 C 13,6 C 13,7 C 82 % 1016,1 hPa 0,0 l/m 1,6 km/h (1 Bft) N-NO 22 0 min 0,000 mm 0 W/m 10,6 C 13,6 C 6,4 km/h (2 Bft) 100 %
22.05.2017 23:20 13,3 C 13,3 C 13,6 C 82 % 1016,1 hPa 0,0 l/m 1,6 km/h (1 Bft) N-NO 22 0 min 0,000 mm 0 W/m 10,3 C 13,3 C 4,8 km/h (1 Bft) 100 %
22.05.2017 23:30 13,1 C 13,1 C 13,2 C 84 % 1016,2 hPa 0,0 l/m 0,0 km/h (0 Bft) N-NO 22 0 min 0,000 mm 0 W/m 10,5 C 13,1 C 1,6 km/h (1 Bft) 100 %
22.05.2017 23:40 12,8 C 12,8 C 13,1 C 85 % 1016,2 hPa 0,0 l/m 0,0 km/h (0 Bft) N-NO 22 0 min 0,000 mm 0 W/m 10,3 C 12,8 C 1,6 km/h (1 Bft) 100 %
22.05.2017 23:50 12,6 C 12,6 C 12,8 C 86 % 1016,2 hPa 0,0 l/m 0,0 km/h (0 Bft) N 0 0 min 0,000 mm 0 W/m 10,3 C 12,6 C 0,0 km/h (0 Bft) 100 %
_ Min-Zeit 06:10 06:10 06:30 17:30 20:30 - 00:00 - - - - - 00:10 06:20 01:00 16:20
Minimum _ 12,4 C 12,4 C 12,4 C 54 % 1015,3 hPa - 0,0 km/h (0 Bft) - - - - - 9,3 C 12,4 C 0,0 km/h (0 Bft) 90 %
_ Max-Zeit 16:30 16:20 16:30 23:50 00:00 00:00 14:20 - - 08:40 13:00 11:40 13:30 16:20 13:30 00:00
Maximum _ 22,7 C 22,3 C 22,7 C 86 % 1020,9 hPa 0,0 l/m 4,8 km/h
SO (1 Bft)
- - 10 min 0,508 mm 1144 W/m 14,5 C 22,6 C 16,1 km/h
SO (3 Bft)
100 %
Durchschnitt _ 16,8 C 16,7 C 16,9 C 72 % 1017,9 hPa #0,0 l/m 0,4 km/h (0 Bft) SO - #8:50 h #3,048 mm 395 W/m 11,4 C 16,8 C 3,7 km/h (1 Bft) 100 %
PRIVATE WETTERSTATION BILLIGHEIM-ALLFELD - www.neckar-odenwald-wetter.de - Holger Sonntag